Last 100 IPOs

Company Symbol Industry Offer Date Shares (millions) Offer Price 1st Day Close Current Price Return SCOOP Rating
PetIQ PETQ Health Care 7/21/2017 6.3 $16.00 $23.32 $22.20 38.75% S/O
Calyxt CLXT Basic Materials 7/20/2017 7.0 $8.00 $11.25 $10.81 35.13% S/O
Kala Pharmaceuticals KALA Health Care 7/20/2017 6.0 $15.00 $18.49 $19.42 29.47% S/O
TPG RE Finance Trust TRTX Financials 7/20/2017 11.0 $20.00 $19.58 $19.75 -1.25% S/O
Akcea Therapeutics AKCA Health Care 7/14/2017 15.6 $8.00 $9.48 $14.90 86.25% S/O
Co-Diagnostics CODX Health Care 7/12/2017 1.2 $6.00 $5.81 $4.49 -25.17% S/O
Byline Bancorp BY Financials 6/30/2017 5.7 $19.00 $20.05 $20.85 9.74% S/O
Aileron Therapeutics ALRN Health Care 6/29/2017 3.8 $15.00 $10.80 $12.60 -16.00% S/O
Blue Apron Holdings APRN Consumer Goods 6/29/2017 30.0 $10.00 $10.00 $7.41 -25.90% S/O
Dova Pharmaceuticals DOVA Health Care 6/29/2017 4.4 $17.00 $19.81 $22.27 31.00% S/O
Avenue Therapeutics ATXI Health Care 6/27/2017 5.5 $6.00 $8.25 $7.18 19.67% S/O
Esquire Financial Holdings ESQ Financials 6/27/2017 2.4 $14.00 $15.25 $14.65 4.64% S/O
Granite Point Mortgage Trust GPMT Financials 6/23/2017 10.0 $19.50 $19.00 $19.04 -2.36% S/O
Altice USA ATUS Telecommunications 6/22/2017 63.9 $30.00 $32.71 $30.96 3.20% S/O
Safety, Income and Growth SAFE Financials 6/22/2017 10.3 $20.00 $19.00 $19.23 -3.85% S/O
SG Blocks SGBX Industrials 6/22/2017 1.5 $5.00 $4.92 $4.40 -12.00% S/O
Athenex ATNX Health Care 6/14/2017 6.0 $11.00 $12.56 $18.73 70.27% S/O
Plymouth Industrial REIT PLYM Financials 6/9/2017 2.9 $19.00 $18.39 $17.20 -9.47% S/O
ShotSpotter SSTI Technology 6/7/2017 2.8 $11.00 $14.38 $12.64 14.91% S/O
Appian APPN Technology 5/25/2017 6.3 $12.00 $15.01 $19.98 66.50% S/O
WideOpenWest WOW Telecommunications 5/25/2017 18.2 $17.00 $16.50 $16.49 -3.00% S/O
SMART Global Holdings SGH Technology 5/24/2017 5.3 $11.00 $13.45 $15.86 44.18% S/O
Bright Scholar Education Holdings BEDU Consumer Services 5/18/2017 15.0 $10.50 $13.40 $15.25 45.24% S/O
G1 Therapeutics GTHX Health Care 5/17/2017 7.0 $15.00 $15.00 $15.02 0.13% S/O
A.S.V. ASV Industrials 5/12/2017 3.8 $7.00 $7.85 $7.88 12.57% S/O
Gardner Denver Holdings GDI Consumer Goods 5/12/2017 41.3 $20.00 $21.10 $23.14 15.70% S/O
Solaris Oilfield Infrastructure SOI Oil & Gas 5/12/2017 10.1 $12.00 $11.55 $12.72 6.00% S/O
Veritone VERI Technology 5/12/2017 2.5 $15.00 $13.07 $10.30 -31.33% S/O
Five Point Holdings FPH Financials 5/10/2017 21.0 $14.00 $15.04 $14.30 2.14% S/O
Guaranty Bancshares GNTY Financials 5/9/2017 2.0 $27.00 $30.10 $31.68 17.33% S/O
KKR Real Estate Finance Trust KREF Financials 5/5/2017 10.3 $20.50 $22.13 $20.84 1.66% S/O
Ovid Therapeutics OVID Health Care 5/5/2017 5.0 $15.00 $12.25 $9.08 -39.47% S/O
Antero Resources Midstream Management AMGP Oil & Gas 5/4/2017 37.3 $23.50 $22.00 $21.02 -10.55% S/O
Biohaven Pharmaceutical Holding BHVN Health Care 5/4/2017 9.9 $17.00 $17.50 $25.79 51.71% S/O
UroGen Pharma Ltd. URGN Health Care 5/4/2017 4.5 $13.00 $13.98 $18.70 43.85% S/O
Carvana CVNA Consumer Services 4/28/2017 15.0 $15.00 $11.10 $21.62 44.13% S/O
China Rapid Finance Limited XRF Financials 4/28/2017 10.0 $6.00 $6.40 $6.83 13.83% S/O
Cloudera CLDR Technology 4/28/2017 15.0 $15.00 $18.10 $18.75 25.00% S/O
Emerald Expositions Events EEX Consumer Services 4/28/2017 15.5 $17.00 $19.50 $22.26 30.94% S/O
NCS Multistage Holdings NCSM Oil & Gas 4/28/2017 9.5 $17.00 $19.50 $21.90 28.82% S/O
Zymeworks ZYME Health Care 4/28/2017 4.5 $13.00 $13.00 $7.45 -42.69% S/O
Floor & Decor Holdings FND Consumer Goods 4/27/2017 8.8 $21.00 $32.05 $37.88 80.38% S/O
Select Energy Services WTTR Oil & Gas 4/21/2017 8.7 $14.00 $14.02 $14.18 1.29% S/O
Cadence Bancorporation CADE Financials 4/13/2017 7.5 $20.00 $0.00 $22.63 13.15% S/O
Tocagen TOCA Health Care 4/13/2017 8.5 $10.00 $12.45 $10.83 8.30% S/O
Warrior Met Coal HCC Basic Materials 4/13/2017 16.7 $19.00 $18.00 $19.00 0.00% S/O
Yext YEXT Technology 4/13/2017 10.5 $11.00 $13.41 $13.80 25.45% S/O
Netshoes (Cayman) Ltd. NETS Consumer Goods 4/12/2017 8.3 $18.00 $16.10 $19.28 7.11% S/O
Azul S.A. AZUL Consumer Services 4/11/2017 28.5 $20.06 $21.50 $24.93 24.28% S/O
Okta OKTA Technology 4/7/2017 11.0 $17.00 $23.51 $23.66 39.18% S/O
Elevate Credit ELVT Financials 4/6/2017 12.4 $6.50 $7.76 $8.33 28.15% S/O
Schneider National SNDR Industrials 4/6/2017 29.0 $19.00 $19.00 $21.25 11.84% S/O
Hess Midstream Partners LP HESM Oil & Gas 4/5/2017 14.8 $23.00 $25.60 $21.95 -4.57% S/O
Alteryx AYX Technology 3/24/2017 9.0 $14.00 $15.50 $21.72 55.14% S/O
MuleSoft MULE Technology 3/17/2017 13.0 $17.00 $24.75 $26.42 55.41% S/O
ProPetro Holding PUMP Oil & Gas 3/17/2017 25.0 $14.00 $14.50 $12.44 -11.14% S/O
Canada Goose Holdings GOOS Consumer Goods 3/16/2017 20.0 $12.78 $16.08 $20.01 56.57% S/O
Ardagh Group S.A. ARD Industrials 3/15/2017 16.2 $19.00 $22.91 $23.32 22.74% S/O
Presidio, Inc. PSDO Technology 3/10/2017 16.7 $14.00 $14.25 $13.97 -0.21% S/O
BeyondSpring BYSI Health Care 3/9/2017 0.2 $20.00 $16.80 $41.73 108.65% S/O
J.Jill JILL Consumer Goods 3/9/2017 11.7 $13.00 $12.65 $12.35 -5.00% S/O
Snap SNAP Technology 3/2/2017 200.0 $17.00 $24.48 $14.08 -17.18% S/O
Hamilton Lane HLNE Financials 3/1/2017 11.9 $16.00 $18.02 $22.38 39.88% S/O
Clipper Realty CLPR Financials 2/10/2017 5.7 $13.50 $13.50 $11.97 -11.33% S/O
Foundation Building Materials FBM Consumer Services 2/10/2017 12.8 $14.00 $15.50 $11.82 -15.57% S/O
Sachem Capital SACH Financials 2/10/2017 2.6 $5.00 $5.04 $4.26 -14.80% S/O
Kimbell Royalty Partners, LP KRP Oil & Gas 2/3/2017 5.0 $18.00 $20.64 $15.99 -11.17% S/O
Ramaco Resources METC Basic Materials 2/3/2017 6.0 $13.50 $13.55 $6.58 -51.26% S/O
Invitation Homes INVH Financials 2/1/2017 77.0 $20.00 $20.00 $21.77 8.85% S/O
Laureate Education LAUR Consumer Services 2/1/2017 35.0 $14.00 $13.25 $17.19 22.79% S/O
Jagged Peak Energy JAG Oil & Gas 1/27/2017 31.6 $15.00 $14.33 $13.09 -12.73% S/O
JELD-WEN Holding JELD Basic Materials 1/27/2017 25.0 $23.00 $26.12 $31.83 38.39% S/O
Jounce Therapeutics JNCE Health Care 1/27/2017 6.5 $16.00 $17.25 $13.57 -15.19% S/O
REV Group REVG Consumer Goods 1/27/2017 12.5 $22.00 $25.00 $26.13 18.77% S/O
AnaptysBio ANAB Health Care 1/26/2017 5.0 $15.00 $17.00 $30.55 103.67% S/O
ObsEva SA OBSV Health Care 1/26/2017 6.5 $15.00 $11.65 $8.41 -43.93% S/O
Keane Group FRAC Oil & Gas 1/20/2017 26.8 $19.00 $21.65 $14.71 -22.58% S/O
trivago N.V. TRVG Technology 12/16/2016 26.1 $11.00 $11.85 $22.63 105.73% S/O
WildHorse Resource Development WRD Oil & Gas 12/14/2016 27.5 $15.00 $15.06 $12.30 -18.00% S/O
Athene Holding Ltd. ATH Financials 12/9/2016 27.0 $40.00 $44.05 $50.85 27.13% S/O
Ichor Holdings, Ltd. ICHR Technology 12/9/2016 5.9 $9.00 $9.77 $23.30 158.89% S/O
SenesTech SNES Basic Materials 12/8/2016 1.9 $8.00 $8.16 $3.53 -55.88% S/O
Polar Power POLA Industrials 12/7/2016 2.4 $7.00 $9.00 $5.84 -16.57% S/O
Innovative Industrial Properties IIPR Financials 12/1/2016 3.4 $20.00 $19.15 $16.17 -19.15% S/O
Smart Sand SND Basic Materials 11/4/2016 11.7 $11.00 $10.99 $5.93 -46.09% S/O
GDS Holdings Ltd. GDS Technology 11/2/2016 19.3 $10.00 $10.41 $9.37 -6.30% S/O
Acushnet Holdings GOLF Consumer Goods 10/28/2016 19.3 $17.00 $17.95 $18.72 10.12% S/O
BlackLine BL Technology 10/28/2016 8.6 $17.00 $23.70 $38.42 126.00% S/O
Quantenna Communications QTNA Technology 10/28/2016 6.7 $16.00 $15.50 $19.73 23.31% S/O
Myovant Sciences Ltd. MYOV Health Care 10/27/2016 14.5 $15.00 $13.26 $11.00 -26.67% S/O
ZTO Express (Cayman) ZTO Industrials 10/27/2016 72.1 $19.50 $16.57 $15.24 -21.85% S/O
Ra Pharmaceuticals RARX Health Care 10/26/2016 7.1 $13.00 $13.00 $15.62 20.15% S/O
Forterra FRTA Industrials 10/20/2016 18.4 $18.00 $16.50 $8.92 -50.44% S/O
iRhythm Technologies IRTC Health Care 10/20/2016 6.3 $17.00 $26.05 $42.80 151.76% S/O
CRISPR Therapeutics AG CRSP Health Care 10/19/2016 4.0 $14.00 $14.00 $17.09 22.07% S/O
Mammoth Energy Services TUSK Oil & Gas 10/14/2016 7.8 $15.00 $13.26 $15.43 2.87% S/O
Azure Power Global AZRE Utilities 10/12/2016 3.4 $18.00 $14.60 $16.37 -9.06% S/O
Extraction Oil & Gas XOG Oil & Gas 10/12/2016 33.3 $19.00 $21.85 $12.07 -36.47% S/O
AzurRx BioPharma AZRX Health Care 10/11/2016 1.0 $5.50 $4.98 $4.11 -25.27% S/O
Camping World Holdings CWH Consumer Services 10/7/2016 11.4 $22.00 $22.50 $31.15 41.59% S/O